Time;durP1;ratioP1;P1;durP2;ratioP2;P2;SDS_P1;SDS_P2;PMS_P1;PMS_P2;Temp;Humidity;BMP_temperature;BMP_pressure;BME280_temperature;BME280_humidity;BME280_pressure;Samples;Min_cycle;Max_cycle;Signal;HPM_P1;HPM_P2
2024/04/11 00:00:23;;;;;;;1.10;0.68;;;13.20;99.90;;;;;;5373436;26;20003;-76
2024/04/11 00:02:51;;;;;;;0.82;0.52;;;13.20;99.90;;;;;;5403839;26;20045;-76
2024/04/11 00:05:20;;;;;;;1.27;0.70;;;13.20;99.90;;;;;;5402699;26;20259;-76
2024/04/11 00:07:47;;;;;;;1.30;0.73;;;13.20;99.90;;;;;;5390258;26;19999;-76
2024/04/11 00:10:14;;;;;;;1.23;1.00;;;13.20;99.90;;;;;;5373412;26;20000;-76
2024/04/11 00:12:41;;;;;;;0.85;0.60;;;13.20;99.90;;;;;;5403001;26;20057;-75
2024/04/11 00:15:09;;;;;;;0.70;0.70;;;13.20;99.90;;;;;;5404237;26;20084;-75
2024/04/11 00:17:36;;;;;;;0.82;0.60;;;13.30;99.90;;;;;;5404402;26;20034;-75
2024/04/11 00:20:05;;;;;;;1.50;0.60;;;13.30;98.10;;;;;;5405342;26;20081;-75
2024/04/11 00:22:32;;;;;;;1.33;0.70;;;13.30;69.80;;;;;;5405276;26;20131;-75
2024/04/11 00:24:59;;;;;;;0.75;0.60;;;13.30;99.90;;;;;;5371897;26;20004;-75
2024/04/11 00:27:26;;;;;;;0.75;0.55;;;13.30;20.40;;;;;;5401113;26;20406;-75
2024/04/11 00:29:53;;;;;;;1.58;0.80;;;13.30;8.30;;;;;;5375403;26;20094;-75
2024/04/11 00:32:22;;;;;;;0.75;0.50;;;13.30;1.00;;;;;;5376882;26;20010;-75
2024/04/11 00:34:49;;;;;;;0.85;0.60;;;13.30;1.00;;;;;;5371077;26;20004;-76
2024/04/11 00:37:16;;;;;;;0.75;0.50;;;13.30;1.00;;;;;;5369934;26;20288;-76
2024/04/11 00:39:43;;;;;;;0.75;0.40;;;13.30;99.90;;;;;;5369646;26;20033;-75
2024/04/11 00:42:10;;;;;;;0.98;0.80;;;13.30;99.90;;;;;;5370452;26;20394;-75
2024/04/11 00:44:38;;;;;;;0.40;0.40;;;13.30;99.90;;;;;;5404242;26;20044;-75
2024/04/11 00:47:09;;;;;;;1.30;0.63;;;13.30;99.90;;;;;;5406196;26;20423;-75
2024/04/11 00:49:40;;;;;;;1.48;0.70;;;13.30;99.90;;;;;;5406286;26;20694;-75
2024/04/11 00:52:10;;;;;;;0.98;0.52;;;13.30;99.90;;;;;;5405162;26;20080;-75
2024/04/11 00:54:37;;;;;;;1.08;0.65;;;13.30;97.80;;;;;;5375760;26;20003;-75
2024/04/11 00:57:07;;;;;;;0.93;0.52;;;13.30;98.40;;;;;;5405100;26;20081;-75
2024/04/11 00:59:44;;;;;;;0.73;0.57;;;13.30;97.10;;;;;;5405264;26;19995;-75
2024/04/11 01:02:11;;;;;;;0.60;0.40;;;13.30;92.50;;;;;;5403682;26;20009;-75
2024/04/11 01:04:38;;;;;;;0.50;0.50;;;13.30;1.00;;;;;;5400741;26;20458;-75
2024/04/11 01:07:08;;;;;;;1.10;0.55;;;13.40;1.00;;;;;;5402453;26;20059;-75
2024/04/11 01:09:37;;;;;;;0.45;0.40;;;13.40;99.90;;;;;;5405258;26;20011;-75
2024/04/11 01:12:05;;;;;;;0.50;0.50;;;13.40;99.90;;;;;;5404826;26;19999;-75
2024/04/11 01:14:32;;;;;;;0.40;0.40;;;13.40;99.90;;;;;;5404749;26;20027;-75
2024/04/11 01:16:59;;;;;;;0.73;0.40;;;13.40;99.90;;;;;;5375792;26;20011;-76
2024/04/11 01:19:26;;;;;;;0.52;0.28;;;13.40;99.90;;;;;;5405177;26;20015;-75
2024/04/11 01:21:54;;;;;;;0.52;0.25;;;13.40;99.90;;;;;;5406316;26;20072;-75
2024/04/11 01:24:21;;;;;;;0.30;0.30;;;13.40;99.90;;;;;;5403267;26;20490;-76
2024/04/11 01:26:48;;;;;;;1.90;0.65;;;13.40;99.90;;;;;;5399863;26;20063;-75
2024/04/11 01:29:15;;;;;;;0.70;0.40;;;13.30;99.90;;;;;;5369304;26;20033;-75
2024/04/11 01:31:44;;;;;;;0.50;0.50;;;13.30;99.90;;;;;;5413530;21;20008;-81
2024/04/11 01:34:11;;;;;;;1.30;0.50;;;13.30;99.90;;;;;;5345900;26;20422;-81
2024/04/11 01:36:38;;;;;;;1.02;0.73;;;13.30;99.90;;;;;;5374508;26;20814;-81
2024/04/11 01:39:09;;;;;;;0.40;0.40;;;13.30;99.90;;;;;;5370553;26;20000;-81
2024/04/11 01:41:39;;;;;;;0.50;0.35;;;13.30;99.90;;;;;;5372418;26;20004;-81
2024/04/11 01:44:06;;;;;;;0.68;0.47;;;13.30;99.90;;;;;;5343393;26;20134;-82
2024/04/11 01:46:33;;;;;;;0.47;0.38;;;13.20;99.90;;;;;;5377070;26;20601;-81
2024/04/11 01:49:00;;;;;;;0.47;0.32;;;13.20;99.90;;;;;;5408561;26;20323;-80
2024/04/11 01:51:27;;;;;;;0.93;0.60;;;13.20;99.90;;;;;;5407768;26;20015;-81
2024/04/11 01:53:54;;;;;;;0.85;0.57;;;13.20;99.90;;;;;;5407045;26;20327;-80
2024/04/11 01:56:24;;;;;;;0.70;0.60;;;13.20;99.90;;;;;;5406115;26;20700;-81
2024/04/11 01:58:52;;;;;;;0.55;0.45;;;13.20;99.90;;;;;;5348368;26;20006;-80
2024/04/11 02:01:20;;;;;;;0.40;0.40;;;13.30;99.90;;;;;;5375516;26;19999;-81
2024/04/11 02:03:48;;;;;;;0.30;0.30;;;13.20;99.90;;;;;;5346996;26;20014;-80
2024/04/11 02:06:15;;;;;;;0.38;0.38;;;13.30;99.90;;;;;;5375508;26;20043;-81
2024/04/11 02:08:42;;;;;;;0.70;0.50;;;13.30;99.90;;;;;;5375841;26;20583;-80
2024/04/11 02:11:11;;;;;;;0.90;0.70;;;13.30;99.90;;;;;;5375415;26;20010;-81
2024/04/11 02:13:38;;;;;;;0.50;0.50;;;13.30;99.90;;;;;;5319310;26;20010;-80
2024/04/11 02:16:06;;;;;;;0.50;0.50;;;13.30;98.30;;;;;;5346818;26;20049;-81
2024/04/11 02:18:33;;;;;;;0.60;0.60;;;13.30;97.80;;;;;;5375623;26;20093;-81
2024/04/11 02:21:00;;;;;;;0.40;0.40;;;13.30;30.20;;;;;;5346066;26;20019;-80
2024/04/11 02:23:28;;;;;;;0.63;0.40;;;13.30;34.70;;;;;;5375141;26;20122;-81
2024/04/11 02:25:57;;;;;;;0.70;0.40;;;13.30;27.60;;;;;;5346966;26;20018;-81
2024/04/11 02:28:24;;;;;;;0.55;0.55;;;13.30;1.00;;;;;;5346725;26;20003;-80
2024/04/11 02:30:53;;;;;;;0.65;0.50;;;13.30;1.00;;;;;;5375424;26;20031;-81
2024/04/11 02:33:29;;;;;;;0.38;0.38;;;13.30;1.00;;;;;;5348244;26;20197;-81
2024/04/11 02:35:57;;;;;;;0.80;0.50;;;13.30;1.00;;;;;;5320945;26;20006;-80
2024/04/11 02:38:27;;;;;;;0.50;0.50;;;13.30;1.00;;;;;;5374693;26;20015;-80
2024/04/11 02:40:54;;;;;;;0.40;0.30;;;13.40;1.00;;;;;;5406368;26;20043;-81
2024/04/11 02:43:21;;;;;;;0.70;0.50;;;13.30;99.90;;;;;;5374948;26;19999;-80
2024/04/11 02:45:49;;;;;;;0.93;0.60;;;13.40;99.90;;;;;;5317618;26;20011;-81
2024/04/11 02:48:16;;;;;;;0.95;0.70;;;13.30;99.90;;;;;;5375592;26;20015;-80
2024/04/11 02:50:44;;;;;;;0.75;0.55;;;13.40;99.90;;;;;;5405582;26;20015;-80
2024/04/11 02:53:11;;;;;;;0.45;0.40;;;13.40;99.90;;;;;;5345879;26;20094;-81
2024/04/11 02:55:40;;;;;;;0.50;0.40;;;13.40;99.90;;;;;;5346397;26;20072;-80
2024/04/11 02:58:06;;;;;;;0.32;0.30;;;13.40;99.90;;;;;;5405523;26;20003;-80
2024/04/11 03:00:33;;;;;;;0.30;0.30;;;13.40;99.90;;;;;;5375036;26;20000;-81
2024/04/11 03:03:00;;;;;;;0.68;0.50;;;13.40;99.90;;;;;;5374709;26;20004;-81
2024/04/11 03:05:29;;;;;;;0.35;0.30;;;13.40;49.70;;;;;;5317336;26;20000;-80
2024/04/11 03:07:56;;;;;;;0.40;0.40;;;13.40;95.50;;;;;;5346616;26;20542;-81
2024/04/11 03:10:24;;;;;;;0.32;0.32;;;13.40;65.50;;;;;;5405707;26;20015;-80
2024/04/11 03:12:51;;;;;;;0.30;0.30;;;13.40;1.00;;;;;;5316768;26;20000;-80
2024/04/11 03:15:18;;;;;;;0.75;0.50;;;13.40;39.80;;;;;;5346265;26;20036;-80
2024/04/11 03:17:46;;;;;;;0.40;0.30;;;13.40;1.00;;;;;;5374763;26;20004;-81
2024/04/11 03:20:17;;;;;;;0.73;0.40;;;13.40;1.00;;;;;;5374302;26;20011;-80
2024/04/11 03:22:44;;;;;;;0.40;0.40;;;13.30;1.00;;;;;;5375454;26;20003;-80
2024/04/11 03:25:12;;;;;;;0.55;0.45;;;13.40;4.60;;;;;;5345084;26;19996;-80
2024/04/11 03:27:39;;;;;;;0.95;0.50;;;13.30;11.30;;;;;;5345787;26;20084;-81
2024/04/11 03:30:08;;;;;;;0.63;0.52;;;13.30;95.90;;;;;;5374656;26;20014;-81
2024/04/11 03:32:35;;;;;;;0.43;0.40;;;13.30;92.30;;;;;;5405228;26;20728;-81
2024/04/11 03:35:04;;;;;;;1.30;0.65;;;13.30;99.30;;;;;;5405390;26;20052;-81
2024/04/11 03:37:31;;;;;;;0.60;0.60;;;13.30;99.90;;;;;;5405166;26;20432;-81
2024/04/11 03:39:58;;;;;;;0.57;0.57;;;13.40;99.90;;;;;;5374151;26;20006;-81
2024/04/11 03:42:25;;;;;;;0.73;0.60;;;13.30;99.90;;;;;;5373791;26;20004;-81
2024/04/11 03:44:52;;;;;;;1.02;0.50;;;13.30;99.90;;;;;;5405429;26;19999;-80
2024/04/11 03:47:21;;;;;;;0.50;0.50;;;13.30;99.90;;;;;;5405105;26;21031;-80
2024/04/11 03:49:52;;;;;;;0.80;0.63;;;13.30;99.90;;;;;;5374340;26;20000;-81
2024/04/11 03:52:19;;;;;;;0.50;0.50;;;13.30;99.90;;;;;;5373493;26;20019;-81
2024/04/11 03:54:46;;;;;;;0.60;0.50;;;13.30;99.90;;;;;;5373268;26;20031;-80
2024/04/11 03:57:13;;;;;;;0.77;0.73;;;13.30;99.90;;;;;;5405259;26;20004;-81
2024/04/11 03:59:40;;;;;;;1.20;0.68;;;13.30;99.90;;;;;;5345108;26;20065;-80
2024/04/11 04:02:07;;;;;;;0.68;0.68;;;13.30;99.90;;;;;;5373864;26;20019;-80
2024/04/11 04:04:35;;;;;;;0.85;0.65;;;13.30;1.00;;;;;;5373986;26;20011;-80
2024/04/11 04:07:02;;;;;;;1.48;0.80;;;13.30;12.90;;;;;;5404477;26;20004;-81
2024/04/11 04:09:29;;;;;;;0.90;0.70;;;13.30;99.90;;;;;;5344673;26;20007;-81
2024/04/11 04:11:56;;;;;;;1.10;0.80;;;13.30;99.90;;;;;;5316349;26;20003;-81
2024/04/11 04:14:24;;;;;;;1.27;0.80;;;13.20;1.00;;;;;;5344753;26;20114;-80
2024/04/11 04:16:52;;;;;;;0.68;0.68;;;13.20;99.90;;;;;;5373862;26;20039;-81
2024/04/11 04:19:18;;;;;;;0.70;0.70;;;13.20;99.90;;;;;;5345246;26;20069;-80
2024/04/11 04:21:45;;;;;;;0.82;0.52;;;13.10;99.90;;;;;;5373033;26;20003;-80
2024/04/11 04:24:12;;;;;;;0.95;0.77;;;13.10;99.90;;;;;;5344123;26;20018;-80
2024/04/11 04:26:40;;;;;;;1.02;0.60;;;13.10;99.90;;;;;;5373243;26;20003;-80
2024/04/11 04:29:08;;;;;;;1.00;0.70;;;13.10;1.00;;;;;;5373844;26;20010;-79
2024/04/11 04:31:37;;;;;;;0.50;0.50;;;13.10;1.00;;;;;;5372648;26;20018;-80
2024/04/11 04:34:04;;;;;;;0.73;0.70;;;13.10;1.00;;;;;;5373728;26;20111;-80
2024/04/11 04:36:34;;;;;;;0.57;0.52;;;13.10;1.00;;;;;;5344457;26;19999;-80
2024/04/11 04:39:05;;;;;;;0.43;0.40;;;13.10;1.00;;;;;;5345155;26;20039;-79
2024/04/11 04:41:34;;;;;;;0.63;0.50;;;13.10;1.00;;;;;;5337273;26;20605;-80
2024/04/11 04:44:02;;;;;;;0.98;0.88;;;13.00;1.00;;;;;;5349880;26;20444;-81
2024/04/11 04:46:32;;;;;;;0.57;0.57;;;13.10;1.00;;;;;;5296468;26;20099;-83
2024/04/11 04:49:03;;;;;;;0.80;0.45;;;13.10;1.00;;;;;;5321508;26;20004;-81
2024/04/11 04:51:36;;;;;;;0.43;0.40;;;13.10;99.90;;;;;;5331380;26;20023;-81
2024/04/11 04:54:03;;;;;;;0.63;0.50;;;13.10;99.90;;;;;;5362046;26;20113;-80
2024/04/11 04:56:32;;;;;;;0.95;0.50;;;13.10;99.90;;;;;;5325037;26;20069;-81
2024/04/11 04:59:00;;;;;;;1.40;0.50;;;13.10;99.90;;;;;;5330976;26;19997;-82
2024/04/11 05:01:27;;;;;;;0.40;0.30;;;13.10;99.90;;;;;;5373694;26;20039;-81
2024/04/11 05:03:55;;;;;;;0.30;0.30;;;13.10;99.90;;;;;;5333099;26;20042;-82
2024/04/11 05:06:23;;;;;;;0.68;0.50;;;13.20;99.90;;;;;;5314815;26;20078;-78
2024/04/11 05:08:53;;;;;;;0.70;0.50;;;13.20;99.90;;;;;;5360148;26;20005;-82
2024/04/11 05:11:22;;;;;;;0.47;0.45;;;13.20;99.90;;;;;;5378502;26;20004;-84
2024/04/11 05:13:49;;;;;;;0.30;0.30;;;13.20;1.00;;;;;;5340539;26;20447;-81
2024/04/11 05:16:19;;;;;;;0.55;0.43;;;13.30;1.00;;;;;;5391627;26;20008;-82
2024/04/11 05:18:51;;;;;;;0.47;0.40;;;13.30;99.90;;;;;;5354177;26;19995;-81
2024/04/11 05:21:23;;;;;;;0.80;0.40;;;13.30;99.90;;;;;;5355596;26;20362;-82
2024/04/11 05:23:51;;;;;;;0.75;0.30;;;13.30;99.90;;;;;;5398886;26;20016;-81
2024/04/11 05:26:24;;;;;;;0.50;0.35;;;13.30;99.90;;;;;;5404353;26;20462;-81
2024/04/11 05:28:54;;;;;;;0.30;0.30;;;13.30;99.90;;;;;;5342559;26;20000;-83
2024/04/11 05:31:27;;;;;;;0.32;0.32;;;13.40;99.90;;;;;;5308558;26;20019;-82
2024/04/11 05:33:59;;;;;;;0.30;0.30;;;13.40;33.90;;;;;;5333420;26;20388;-84
2024/04/11 05:36:30;;;;;;;0.35;0.35;;;13.40;40.50;;;;;;5360565;26;20032;-76
2024/04/11 05:38:57;;;;;;;0.45;0.40;;;13.40;1.00;;;;;;5333156;26;20000;-83
2024/04/11 05:41:28;;;;;;;0.22;0.22;;;13.40;1.00;;;;;;5348794;26;20631;-82
2024/04/11 05:43:58;;;;;;;0.20;0.20;;;13.50;1.00;;;;;;5333919;26;20826;-84
2024/04/11 05:46:26;;;;;;;1.30;0.30;;;13.40;99.90;;;;;;5355237;26;20016;-82
2024/04/11 05:48:53;;;;;;;1.60;0.60;;;13.50;99.90;;;;;;5357530;26;20000;-83
2024/04/11 05:51:21;;;;;;;0.28;0.28;;;13.40;99.90;;;;;;5309487;26;20090;-83
2024/04/11 05:53:48;;;;;;;0.13;0.10;;;13.50;99.90;;;;;;5337885;26;20000;-82
2024/04/11 05:56:15;;;;;;;0.38;0.38;;;13.50;99.90;;;;;;5363693;26;20016;-83
2024/04/11 05:58:48;;;;;;;0.22;0.22;;;13.50;63.60;;;;;;5370853;26;20084;-83
2024/04/11 06:01:15;;;;;;;0.30;0.20;;;13.50;66.40;;;;;;5300428;26;20003;-82
2024/04/11 06:03:50;;;;;;;0.43;0.28;;;13.60;1.00;;;;;;5340455;26;20020;-83
2024/04/11 06:06:19;;;;;;;0.20;0.20;;;13.60;1.00;;;;;;5305288;26;20000;-85
2024/04/11 06:08:47;;;;;;;0.30;0.30;;;13.60;1.00;;;;;;5335110;26;20017;-82
2024/04/11 06:11:17;;;;;;;0.50;0.22;;;13.60;1.00;;;;;;5296339;26;20022;-82
2024/04/11 06:13:48;;;;;;;0.55;0.30;;;13.60;99.90;;;;;;5364081;26;20019;-81
2024/04/11 06:16:15;;;;;;;0.30;0.30;;;13.60;1.00;;;;;;5332150;26;20051;-81
2024/04/11 06:18:43;;;;;;;0.20;0.20;;;13.60;1.00;;;;;;5342536;26;20304;-81
2024/04/11 06:21:12;;;;;;;1.23;0.40;;;13.60;1.00;;;;;;5371576;26;20010;-82
2024/04/11 06:23:40;;;;;;;0.75;0.22;;;13.60;1.00;;;;;;5340404;26;20004;-81
2024/04/11 06:26:16;;;;;;;0.82;0.30;;;13.60;1.00;;;;;;5369567;26;20517;-81
2024/04/11 06:28:45;;;;;;;0.32;0.22;;;13.60;1.00;;;;;;5340950;26;20133;-82
2024/04/11 06:31:14;;;;;;;0.20;0.20;;;13.70;1.00;;;;;;5312832;26;20012;-81
2024/04/11 06:33:43;;;;;;;0.55;0.32;;;13.70;1.00;;;;;;5341208;26;20034;-81
2024/04/11 06:36:10;;;;;;;0.43;0.28;;;13.60;1.00;;;;;;5372463;26;20003;-81
2024/04/11 06:38:38;;;;;;;0.43;0.28;;;13.70;1.00;;;;;;5372846;26;20004;-81
2024/04/11 06:41:08;;;;;;;0.90;0.52;;;13.70;1.00;;;;;;5315741;26;20015;-81
2024/04/11 06:43:37;;;;;;;1.30;0.47;;;13.70;1.00;;;;;;5360437;26;20013;-82
2024/04/11 06:46:10;;;;;;;0.75;0.40;;;13.70;48.10;;;;;;5409074;26;20896;-82
2024/04/11 06:48:38;;;;;;;0.47;0.20;;;13.80;33.20;;;;;;5378214;26;20017;-82
2024/04/11 06:51:06;;;;;;;0.38;0.30;;;13.80;17.50;;;;;;5315854;26;20011;-81
2024/04/11 06:53:34;;;;;;;0.20;0.20;;;13.80;99.90;;;;;;5345940;26;19996;-82
2024/04/11 06:56:07;;;;;;;0.52;0.30;;;13.80;92.70;;;;;;5281021;26;20067;-81
2024/04/11 06:58:36;;;;;;;;;;;13.80;99.90;;;;;;5284272;26;20015;-81
2024/04/11 07:01:08;;;;;;;0.52;0.50;;;13.70;99.90;;;;;;5309948;26;19948;-81
2024/04/11 07:03:40;;;;;;;0.57;0.40;;;13.80;1.00;;;;;;5337037;26;20671;-81
2024/04/11 07:06:22;;;;;;;0.38;0.22;;;13.80;1.00;;;;;;5368942;26;20244;-82
2024/04/11 07:08:49;;;;;;;0.30;0.30;;;13.80;1.00;;;;;;5314482;26;20027;-81
2024/04/11 07:11:19;;;;;;;0.30;0.30;;;13.80;99.90;;;;;;5307734;26;20008;-80
2024/04/11 07:13:48;;;;;;;0.75;0.35;;;13.90;1.00;;;;;;5282821;26;20489;-81
2024/04/11 07:16:20;;;;;;;0.20;0.20;;;13.90;99.90;;;;;;5308925;26;20004;-81
2024/04/11 07:18:54;;;;;;;0.35;0.20;;;14.00;99.90;;;;;;5367321;26;20075;-82
2024/04/11 07:21:25;;;;;;;0.45;0.30;;;14.00;23.70;;;;;;5311841;26;20317;-83
2024/04/11 07:23:57;;;;;;;0.20;0.20;;;14.10;1.00;;;;;;5320411;26;19996;-82
2024/04/11 07:26:31;;;;;;;0.43;0.40;;;14.10;99.90;;;;;;5282225;26;20000;-82
2024/04/11 07:29:00;;;;;;;0.30;0.30;;;14.10;99.90;;;;;;5283590;26;20132;-81
2024/04/11 07:31:28;;;;;;;0.15;0.15;;;14.20;99.90;;;;;;5308583;26;20008;-82
2024/04/11 07:33:55;;;;;;;0.20;0.20;;;14.20;51.30;;;;;;5276328;26;21003;-81
2024/04/11 07:36:25;;;;;;;0.10;0.10;;;14.30;1.00;;;;;;5276472;26;20008;-81
2024/04/11 07:38:53;;;;;;;0.13;0.13;;;14.30;99.90;;;;;;5310065;26;20012;-82
2024/04/11 07:41:23;;;;;;;0.40;0.25;;;14.40;99.90;;;;;;5310873;26;20453;-82
2024/04/11 07:43:51;;;;;;;0.13;0.13;;;14.40;99.90;;;;;;5351308;26;20411;-81
2024/04/11 07:46:19;;;;;;;0.10;0.10;;;14.50;99.90;;;;;;5338949;26;20027;-81
2024/04/11 07:48:51;;;;;;;0.20;0.20;;;14.50;99.90;;;;;;5340605;26;20354;-80
2024/04/11 07:51:20;;;;;;;0.20;0.20;;;14.60;98.00;;;;;;5343971;26;20028;-81
2024/04/11 07:53:48;;;;;;;0.20;0.20;;;14.60;99.50;;;;;;5343058;26;20003;-81
2024/04/11 07:56:23;;;;;;;0.20;0.20;;;14.60;99.90;;;;;;5370884;26;20007;-80
2024/04/11 07:58:55;;;;;;;0.20;0.20;;;14.70;99.90;;;;;;5386129;26;20018;-80
2024/04/11 08:01:30;;;;;;;0.10;0.10;;;14.70;99.90;;;;;;5278149;26;20074;-80
2024/04/11 08:03:57;;;;;;;0.20;0.20;;;14.80;1.00;;;;;;5359348;26;20000;-81
2024/04/11 08:06:28;;;;;;;0.13;0.13;;;14.90;1.00;;;;;;5369641;26;20048;-82
2024/04/11 08:08:58;;;;;;;0.15;0.15;;;15.10;34.90;;;;;;5304912;26;20509;-82
2024/04/11 08:11:30;;;;;;;0.17;0.15;;;15.10;1.00;;;;;;5321164;26;20515;-82
2024/04/11 08:13:57;;;;;;;0.10;0.10;;;15.20;1.00;;;;;;5362149;26;20009;-82
2024/04/11 08:16:26;;;;;;;0.30;0.22;;;15.30;99.90;;;;;;5393963;26;20780;-82
2024/04/11 08:18:53;;;;;;;0.20;0.20;;;15.30;99.90;;;;;;5335695;26;20371;-82
2024/04/11 08:21:20;;;;;;;0.30;0.30;;;15.40;99.90;;;;;;5355066;26;20008;-82
2024/04/11 08:23:47;;;;;;;0.10;0.10;;;15.50;99.90;;;;;;5386233;26;20037;-82
2024/04/11 08:26:15;;;;;;;0.70;0.20;;;15.40;99.90;;;;;;5335080;26;20040;-82
2024/04/11 08:28:43;;;;;;;0.10;0.10;;;15.50;99.90;;;;;;5340065;26;20016;-82
2024/04/11 08:31:11;;;;;;;0.20;0.20;;;15.50;99.90;;;;;;5381988;26;20652;-81
2024/04/11 08:33:38;;;;;;;0.10;0.10;;;15.50;99.90;;;;;;5345043;26;20001;-82
2024/04/11 08:36:08;;;;;;;0.30;0.20;;;15.70;99.90;;;;;;5335057;26;20000;-78
2024/04/11 08:38:40;;;;;;;0.10;0.10;;;15.80;99.90;;;;;;5316946;26;20011;-78
2024/04/11 08:41:19;;;;;;;0.30;0.30;;;15.80;99.90;;;;;;5305838;26;20001;-79
2024/04/11 08:43:46;;;;;;;0.20;0.20;;;15.90;99.90;;;;;;5391452;26;20012;-78
2024/04/11 08:46:13;;;;;;;0.70;0.20;;;15.90;99.90;;;;;;5363983;26;20004;-77
2024/04/11 08:48:40;;;;;;;0.15;0.15;;;15.90;99.90;;;;;;5367665;26;20346;-77
2024/04/11 08:51:15;;;;;;;0.20;0.20;;;15.90;99.90;;;;;;5306900;26;20191;-78
2024/04/11 08:53:45;;;;;;;0.10;0.10;;;15.90;99.90;;;;;;5409311;26;20319;-77
2024/04/11 08:56:28;;;;;;;0.28;0.22;;;15.90;99.90;;;;;;5388269;26;20002;-77
2024/04/11 08:58:55;;;;;;;0.15;0.15;;;16.00;99.90;;;;;;5380534;26;20063;-77
2024/04/11 09:01:22;;;;;;;0.45;0.22;;;16.10;99.90;;;;;;5369833;26;20796;-77
2024/04/11 09:03:48;;;;;;;0.17;0.17;;;16.20;99.90;;;;;;5310134;26;20101;-78
2024/04/11 09:06:23;;;;;;;0.20;0.20;;;16.30;99.90;;;;;;5404220;26;20076;-78
2024/04/11 09:08:51;;;;;;;0.10;0.10;;;16.40;99.90;;;;;;5347076;26;20052;-78
2024/04/11 09:11:18;;;;;;;0.10;0.10;;;16.60;99.90;;;;;;5316134;26;20050;-78
2024/04/11 09:13:48;;;;;;;0.17;0.17;;;16.60;99.90;;;;;;5318196;26;20011;-78
2024/04/11 09:16:15;;;;;;;0.55;0.30;;;16.60;99.90;;;;;;5404696;26;20077;-78
2024/04/11 09:18:43;;;;;;;0.45;0.20;;;16.70;99.90;;;;;;5345418;26;20038;-78
2024/04/11 09:21:11;;;;;;;0.10;0.10;;;16.70;99.90;;;;;;5373646;26;20003;-78
2024/04/11 09:23:46;;;;;;;0.20;0.20;;;16.70;99.90;;;;;;5357747;26;20019;-78
2024/04/11 09:26:13;;;;;;;0.28;0.20;;;16.80;99.90;;;;;;5278746;26;20012;-78
2024/04/11 09:28:42;;;;;;;0.10;0.10;;;16.90;99.90;;;;;;5366774;26;20004;-78
2024/04/11 09:31:10;;;;;;;0.47;0.20;;;16.90;99.90;;;;;;5369914;26;20003;-78
2024/04/11 09:33:39;;;;;;;0.20;0.20;;;16.90;99.90;;;;;;5315877;26;20084;-77
2024/04/11 09:36:10;;;;;;;0.30;0.30;;;17.00;99.90;;;;;;5317345;26;20000;-77
2024/04/11 09:38:41;;;;;;;0.30;0.30;;;17.10;99.90;;;;;;5345054;26;20045;-78
2024/04/11 09:41:11;;;;;;;0.17;0.17;;;17.10;99.90;;;;;;5345065;26;20077;-78
2024/04/11 09:43:41;;;;;;;0.32;0.20;;;17.10;99.90;;;;;;5311583;26;20502;-78
2024/04/11 09:46:08;;;;;;;0.35;0.25;;;17.10;99.90;;;;;;5369149;26;20019;-77
2024/04/11 09:48:41;;;;;;;0.20;0.20;;;17.10;99.90;;;;;;5373585;26;20004;-78
2024/04/11 09:51:13;;;;;;;0.30;0.20;;;17.10;99.90;;;;;;5344783;26;20397;-78
2024/04/11 09:53:41;;;;;;;0.10;0.10;;;17.20;99.90;;;;;;5317478;26;20602;-78
2024/04/11 09:56:13;;;;;;;0.10;0.10;;;17.30;99.90;;;;;;5345034;26;20640;-78
2024/04/11 09:58:41;;;;;;;0.20;0.20;;;17.50;99.90;;;;;;5374518;26;20015;-78
2024/04/11 10:01:16;;;;;;;0.10;0.10;;;17.50;99.90;;;;;;5344413;26;20003;-78
2024/04/11 10:03:45;;;;;;;0.10;0.10;;;17.60;99.90;;;;;;5341053;26;20069;-79
2024/04/11 10:06:17;;;;;;;0.20;0.20;;;17.70;99.90;;;;;;5369983;26;20008;-78
2024/04/11 10:08:48;;;;;;;0.30;0.20;;;17.70;99.90;;;;;;5373518;26;20030;-78
2024/04/11 10:11:19;;;;;;;0.20;0.20;;;17.70;99.90;;;;;;5346027;26;19995;-77
2024/04/11 10:13:49;;;;;;;0.30;0.20;;;17.60;99.90;;;;;;5317099;26;20004;-77
2024/04/11 10:16:22;;;;;;;0.30;0.20;;;17.60;99.90;;;;;;5345047;26;20026;-77
2024/04/11 10:19:04;;;;;;;0.10;0.10;;;17.60;99.90;;;;;;5344947;26;20000;-77
2024/04/11 10:21:37;;;;;;;0.15;0.15;;;17.70;99.90;;;;;;5374629;26;20619;-77
2024/04/11 10:24:23;;;;;;;0.20;0.20;;;17.80;99.90;;;;;;5372931;26;20016;-78
2024/04/11 10:26:50;;;;;;;0.20;0.20;;;17.80;99.90;;;;;;5370596;26;20038;-77
2024/04/11 10:29:21;;;;;;;0.30;0.20;;;17.90;99.90;;;;;;5370004;26;20004;-77
2024/04/11 10:31:52;;;;;;;0.25;0.20;;;18.00;99.90;;;;;;5370688;26;20466;-77
2024/04/11 10:34:25;;;;;;;0.20;0.20;;;18.10;99.90;;;;;;5343112;26;20004;-77
2024/04/11 10:37:02;;;;;;;0.20;0.20;;;18.00;99.90;;;;;;5404753;26;20076;-77
2024/04/11 10:39:35;;;;;;;0.20;0.20;;;18.10;99.90;;;;;;5374602;26;20923;-77
2024/04/11 10:42:03;;;;;;;0.20;0.20;;;18.00;99.90;;;;;;5405226;26;20049;-78
2024/04/11 10:44:30;;;;;;;0.32;0.30;;;18.00;99.90;;;;;;5313839;26;20014;-78
2024/04/11 10:46:57;;;;;;;0.25;0.25;;;17.90;99.90;;;;;;5340205;26;20011;-77
2024/04/11 10:49:33;;;;;;;0.20;0.20;;;18.00;99.90;;;;;;5369530;26;20004;-77
2024/04/11 10:52:00;;;;;;;0.30;0.30;;;18.30;99.90;;;;;;5344190;26;19999;-77
2024/04/11 10:54:27;;;;;;;0.20;0.20;;;18.50;99.90;;;;;;5311144;26;20222;-77
2024/04/11 10:56:58;;;;;;;0.20;0.20;;;18.50;99.90;;;;;;5368113;26;20526;-76
2024/04/11 10:59:28;;;;;;;0.20;0.20;;;18.30;99.90;;;;;;5372566;26;20003;-77
2024/04/11 11:02:02;;;;;;;0.15;0.15;;;18.30;99.90;;;;;;5373394;26;20076;-77
2024/04/11 11:04:33;;;;;;;0.30;0.30;;;18.20;99.90;;;;;;5347667;26;20011;-77
2024/04/11 11:07:12;;;;;;;1.10;0.40;;;18.00;99.90;;;;;;5342733;26;20624;-77
2024/04/11 11:09:45;;;;;;;0.30;0.30;;;17.90;99.90;;;;;;5372058;26;20015;-78
2024/04/11 11:12:15;;;;;;;0.20;0.20;;;18.00;99.90;;;;;;5316065;26;20015;-77
2024/04/11 11:14:43;;;;;;;0.82;0.35;;;18.20;99.90;;;;;;5368658;26;20434;-77
2024/04/11 11:17:17;;;;;;;0.43;0.30;;;18.20;99.90;;;;;;5368441;26;20069;-77
2024/04/11 11:19:49;;;;;;;0.28;0.28;;;18.10;99.90;;;;;;5374103;26;20008;-77
2024/04/11 11:22:37;;;;;;;0.20;0.20;;;18.10;99.90;;;;;;5316885;26;19995;-78
2024/04/11 11:25:08;;;;;;;0.30;0.30;;;18.10;99.90;;;;;;5339558;26;20000;-78
2024/04/11 11:27:36;;;;;;;0.20;0.20;;;18.20;99.90;;;;;;5342716;26;20003;-78
2024/04/11 11:30:15;;;;;;;0.13;0.13;;;18.40;99.90;;;;;;5340830;26;20015;-78
2024/04/11 11:32:43;;;;;;;0.30;0.30;;;18.60;99.90;;;;;;5370895;26;20627;-78
2024/04/11 11:35:12;;;;;;;0.30;0.22;;;18.80;99.90;;;;;;5370581;26;20012;-78
2024/04/11 11:37:39;;;;;;;0.30;0.30;;;18.70;99.90;;;;;;5372032;26;20009;-78
2024/04/11 11:42:53;;;;;;;0.40;0.20;;;18.80;99.90;;;;;;5376048;26;20011;-78
2024/04/11 11:45:27;;;;;;;0.13;0.13;;;19.00;99.90;;;;;;5403218;26;20015;-78
2024/04/11 11:47:57;;;;;;;0.20;0.20;;;19.10;99.90;;;;;;5373904;26;20478;-78
2024/04/11 11:50:35;;;;;;;0.20;0.20;;;19.10;99.90;;;;;;5372373;26;20011;-78
2024/04/11 11:53:24;;;;;;;0.25;0.20;;;19.20;99.90;;;;;;5318831;26;20707;-78
2024/04/11 11:55:57;;;;;;;0.20;0.20;;;19.20;99.90;;;;;;5352790;26;20480;-78
2024/04/11 11:58:34;;;;;;;0.50;0.32;;;19.30;99.90;;;;;;5402450;26;20535;-78
2024/04/11 12:01:19;;;;;;;0.30;0.30;;;19.40;99.90;;;;;;5316394;26;20593;-78
2024/04/11 12:03:47;;;;;;;0.25;0.20;;;19.40;99.90;;;;;;5351337;26;20011;-78
2024/04/11 12:06:14;;;;;;;0.25;0.22;;;19.30;99.90;;;;;;5370685;26;20614;-77
2024/04/11 12:08:43;;;;;;;0.43;0.25;;;19.20;99.90;;;;;;5373556;26;20533;-78
2024/04/11 12:13:51;;;;;;;0.20;0.20;;;19.30;99.90;;;;;;5364614;26;20210;-78
2024/04/11 12:16:18;;;;;;;0.20;0.20;;;19.40;99.90;;;;;;5323469;26;20011;-80
2024/04/11 12:18:47;;;;;;;0.13;0.10;;;19.50;99.90;;;;;;5366815;26;20008;-78
2024/04/11 12:21:25;;;;;;;0.20;0.20;;;19.70;99.90;;;;;;5364618;26;20621;-78
2024/04/11 12:23:54;;;;;;;0.10;0.10;;;19.90;99.90;;;;;;5333088;26;20869;-78
2024/04/11 12:26:22;;;;;;;0.50;0.20;;;20.00;99.90;;;;;;5340931;26;20074;-78
2024/04/11 12:28:50;;;;;;;0.20;0.20;;;19.80;99.90;;;;;;5402038;26;20069;-78
2024/04/11 12:31:21;;;;;;;0.45;0.28;;;19.80;99.90;;;;;;5330373;26;20067;-77
2024/04/11 12:33:51;;;;;;;0.15;0.15;;;19.80;99.90;;;;;;5349640;26;20005;-77
2024/04/11 12:39:14;;;;;;;0.20;0.20;;;20.00;99.90;;;;;;5357559;26;20004;-79
2024/04/11 12:41:45;;;;;;;0.10;0.10;;;20.20;99.90;;;;;;5359325;26;20216;-78
2024/04/11 12:44:12;;;;;;;0.20;0.20;;;20.30;99.90;;;;;;5291917;26;20020;-78
2024/04/11 12:46:52;;;;;;;0.20;0.20;;;20.20;99.90;;;;;;5333141;26;20016;-78
2024/04/11 12:49:25;;;;;;;0.20;0.20;;;20.10;99.90;;;;;;5333486;26;20032;-77
2024/04/11 12:51:55;;;;;;;0.20;0.20;;;19.90;99.90;;;;;;5315760;26;20004;-78
2024/04/11 12:54:26;;;;;;;0.20;0.20;;;20.00;99.90;;;;;;5350803;26;20325;-78
2024/04/11 12:57:07;;;;;;;0.30;0.30;;;20.40;99.90;;;;;;5348367;26;20045;-78
2024/04/11 12:59:39;;;;;;;0.30;0.30;;;20.80;99.90;;;;;;5333899;26;20587;-78
2024/04/11 13:02:08;;;;;;;0.30;0.30;;;21.80;99.90;;;;;;5341820;26;20012;-78
2024/04/11 13:04:36;;;;;;;0.35;0.30;;;22.40;99.90;;;;;;5293028;26;20004;-78
2024/04/11 13:07:10;;;;;;;0.45;0.40;;;22.30;99.90;;;;;;5328619;26;20013;-78